createdAt,value
2019-05-06T00:00:24.563Z,97.80
2019-05-06T00:01:27.614Z,97.30
2019-05-06T00:02:30.263Z,97.10
2019-05-06T00:03:34.375Z,97.70
2019-05-06T00:04:37.470Z,97.70
2019-05-06T00:05:40.061Z,97.00
2019-05-06T00:06:44.004Z,96.80
2019-05-06T00:07:54.518Z,97.40
2019-05-06T00:08:57.576Z,96.70
2019-05-06T00:10:00.213Z,97.10
2019-05-06T00:11:04.871Z,97.70
2019-05-06T00:12:08.034Z,97.40
2019-05-06T00:13:10.716Z,97.70
2019-05-06T00:14:14.140Z,97.90
2019-05-06T00:15:16.971Z,97.60
2019-05-06T00:16:19.552Z,97.20
2019-05-06T00:17:23.920Z,96.40
2019-05-06T00:18:26.935Z,97.50
2019-05-06T00:19:29.518Z,98.00
2019-05-06T00:20:34.578Z,96.70
2019-05-06T00:21:36.896Z,97.20
2019-05-06T00:22:39.572Z,98.30
2019-05-06T00:23:47.723Z,97.60
2019-05-06T00:24:56.960Z,97.10
2019-05-06T00:26:24.216Z,97.40
2019-05-06T00:27:39.791Z,97.20
2019-05-06T00:28:45.547Z,97.80
2019-05-06T00:29:48.277Z,97.50
2019-05-06T00:30:55.852Z,97.20
2019-05-06T00:31:57.713Z,97.30
2019-05-06T00:33:01.551Z,97.40
2019-05-06T00:34:04.437Z,97.30
2019-05-06T00:35:07.630Z,97.70
2019-05-06T00:36:10.949Z,96.90
2019-05-06T00:37:14.753Z,96.70
2019-05-06T00:38:17.933Z,97.20
2019-05-06T00:39:46.396Z,97.60
2019-05-06T00:40:54.400Z,98.30
2019-05-06T00:42:03.909Z,97.80
2019-05-06T00:43:08.118Z,97.80
2019-05-06T00:44:11.385Z,97.50
2019-05-06T00:45:15.217Z,96.60
2019-05-06T00:46:20.475Z,96.60
2019-05-06T00:47:24.576Z,96.60
2019-05-06T00:48:27.386Z,96.60
2019-05-06T00:49:31.753Z,97.50
2019-05-06T00:50:34.941Z,96.80
2019-05-06T00:51:37.778Z,96.70
2019-05-06T00:52:40.591Z,97.30
2019-05-06T00:53:47.300Z,97.80
2019-05-06T00:54:49.910Z,98.10
2019-05-06T00:55:53.812Z,98.10
2019-05-06T00:56:57.109Z,97.60
2019-05-06T00:58:01.004Z,97.80
2019-05-06T00:59:03.851Z,98.20
2019-05-06T01:00:07.038Z,97.60
2019-05-06T01:01:23.188Z,97.80
2019-05-06T01:02:14.619Z,98.20
2019-05-06T01:03:17.308Z,97.30
2019-05-06T01:04:19.958Z,97.50
2019-05-06T01:05:24.430Z,97.50
2019-05-06T01:06:27.307Z,98.70
2019-05-06T01:07:30.020Z,97.40
2019-05-06T01:08:34.691Z,97.70
2019-05-06T01:09:37.370Z,98.30
2019-05-06T01:10:40.226Z,97.50
2019-05-06T01:11:44.914Z,97.50
2019-05-06T01:12:54.630Z,97.30
2019-05-06T01:14:04.057Z,97.30
2019-05-06T01:15:10.711Z,97.50
2019-05-06T01:16:15.623Z,97.70
2019-05-06T01:17:20.267Z,97.90
2019-05-06T01:18:24.496Z,98.00
2019-05-06T01:19:27.483Z,97.40
2019-05-06T01:20:30.094Z,97.60
2019-05-06T01:21:34.228Z,96.90
2019-05-06T01:22:37.033Z,97.80
2019-05-06T01:23:43.903Z,98.20
2019-05-06T01:24:46.671Z,98.50
2019-05-06T01:25:49.404Z,98.90
2019-05-06T01:26:53.662Z,98.70
2019-05-06T01:27:56.912Z,99.00
2019-05-06T01:28:59.448Z,98.70
2019-05-06T01:30:04.272Z,98.30
2019-05-06T01:31:08.623Z,98.30
2019-05-06T01:32:11.142Z,98.10
2019-05-06T01:33:14.644Z,98.30
2019-05-06T01:34:17.599Z,98.00
2019-05-06T01:35:20.602Z,98.30
2019-05-06T01:36:24.911Z,98.00
2019-05-06T01:37:28.814Z,98.30
2019-05-06T01:38:36.410Z,98.30
2019-05-06T01:40:04.171Z,98.00
2019-05-06T01:41:44.749Z,98.20
2019-05-06T01:42:54.021Z,98.30
2019-05-06T01:43:56.708Z,99.00
2019-05-06T01:44:59.219Z,99.20
2019-05-06T01:46:01.853Z,99.40
2019-05-06T01:47:04.537Z,99.40
2019-05-06T01:48:10.081Z,99.70
2019-05-06T01:49:13.817Z,98.90
2019-05-06T01:50:18.481Z,99.20
2019-05-06T01:51:24.092Z,98.80
2019-05-06T01:52:26.898Z,99.30
2019-05-06T01:53:29.415Z,99.20
2019-05-06T01:54:34.172Z,99.30
2019-05-06T01:55:36.550Z,98.90
2019-05-06T01:56:39.388Z,99.00
2019-05-06T01:57:44.333Z,99.80
2019-05-06T01:58:46.841Z,99.30
2019-05-06T01:59:49.388Z,99.70
2019-05-06T02:00:51.972Z,99.70
2019-05-06T02:02:00.108Z,99.60
2019-05-06T02:02:59.220Z,98.80
2019-05-06T02:04:04.214Z,98.70
2019-05-06T02:05:06.552Z,99.00
2019-05-06T02:06:09.318Z,99.40
2019-05-06T02:07:11.964Z,98.60
2019-05-06T02:08:14.800Z,99.20
2019-05-06T02:09:17.310Z,99.00
2019-05-06T02:10:19.856Z,98.10
2019-05-06T02:11:24.140Z,98.80
2019-05-06T02:12:27.082Z,98.70
2019-05-06T02:13:29.689Z,99.00
2019-05-06T02:14:34.089Z,99.00
2019-05-06T02:15:37.025Z,99.20
2019-05-06T02:16:39.954Z,99.00
2019-05-06T02:17:44.110Z,99.10
2019-05-06T02:18:47.133Z,98.50
2019-05-06T02:19:49.796Z,98.70
2019-05-06T02:20:55.077Z,98.80
2019-05-06T02:22:13.679Z,99.10
2019-05-06T02:23:19.371Z,98.90
2019-05-06T02:24:25.948Z,99.00
2019-05-06T02:25:41.511Z,99.10
2019-05-06T02:26:44.302Z,99.00
2019-05-06T02:27:46.991Z,99.00
2019-05-06T02:28:51.666Z,98.70
2019-05-06T02:30:05.510Z,99.00
2019-05-06T02:31:26.595Z,99.20
2019-05-06T02:32:55.750Z,99.50
2019-05-06T02:34:05.064Z,99.10
2019-05-06T02:35:17.642Z,99.50
2019-05-06T02:36:39.799Z,99.30
2019-05-06T02:37:46.036Z,98.80
2019-05-06T02:38:51.614Z,99.00
2019-05-06T02:39:53.400Z,99.30
2019-05-06T02:40:56.576Z,99.30
2019-05-06T02:41:59.117Z,99.70
2019-05-06T02:43:03.301Z,99.00
2019-05-06T02:44:10.022Z,99.00
2019-05-06T02:45:12.763Z,98.90
2019-05-06T02:46:15.415Z,98.80
2019-05-06T02:47:34.379Z,98.70
2019-05-06T02:48:59.499Z,98.80
2019-05-06T02:50:05.974Z,99.20
2019-05-06T02:51:14.373Z,99.80
2019-05-06T02:52:16.990Z,99.80
2019-05-06T02:53:23.588Z,99.80
2019-05-06T02:54:25.919Z,99.70
2019-05-06T02:55:32.455Z,99.30
2019-05-06T02:56:33.509Z,99.80
2019-05-06T02:57:36.373Z,99.90
2019-05-06T02:58:39.131Z,99.90
2019-05-06T02:59:44.179Z,99.80
2019-05-06T03:00:46.647Z,99.90
2019-05-06T03:01:49.189Z,99.80
2019-05-06T03:02:54.212Z,99.60
2019-05-06T03:03:56.739Z,99.80
2019-05-06T03:04:59.583Z,99.80
2019-05-06T03:06:03.896Z,99.90
2019-05-06T03:07:07.067Z,99.90
2019-05-06T03:08:13.206Z,99.90
2019-05-06T03:09:14.471Z,99.90
2019-05-06T03:10:17.367Z,99.90
2019-05-06T03:11:20.167Z,99.90
2019-05-06T03:12:23.999Z,99.90
2019-05-06T03:13:26.523Z,99.80
2019-05-06T03:14:29.022Z,99.80
2019-05-06T03:15:34.281Z,99.90
2019-05-06T03:16:37.128Z,99.90
2019-05-06T03:17:39.654Z,99.50
2019-05-06T03:18:43.335Z,99.90
2019-05-06T03:19:48.116Z,99.90
2019-05-06T03:20:59.193Z,99.90
2019-05-06T03:22:29.092Z,99.90
2019-05-06T03:23:34.850Z,99.90
2019-05-06T03:24:45.818Z,99.90
2019-05-06T03:25:48.499Z,99.90
2019-05-06T03:26:53.379Z,99.90
2019-05-06T03:27:56.886Z,99.90
2019-05-06T03:28:59.395Z,99.90
2019-05-06T03:30:04.137Z,99.90
2019-05-06T03:31:08.004Z,99.90
2019-05-06T03:32:16.685Z,99.90
2019-05-06T03:33:36.238Z,99.90
2019-05-06T03:34:38.318Z,99.90
2019-05-06T03:35:36.412Z,99.90
2019-05-06T03:36:34.885Z,99.90
2019-05-06T03:37:38.103Z,99.90
2019-05-06T03:38:43.157Z,99.90
2019-05-06T03:39:45.413Z,99.90
2019-05-06T03:40:48.277Z,99.90
2019-05-06T03:41:53.699Z,99.90
2019-05-06T03:42:55.921Z,99.90
2019-05-06T03:43:58.569Z,99.90
2019-05-06T03:45:05.785Z,99.90
2019-05-06T03:46:23.117Z,99.90
2019-05-06T03:47:45.387Z,99.90
2019-05-06T03:48:49.278Z,99.90
2019-05-06T03:49:54.487Z,99.90
2019-05-06T03:50:56.715Z,99.90
2019-05-06T03:52:02.533Z,99.90
2019-05-06T03:53:05.770Z,99.90
2019-05-06T03:54:09.147Z,99.90
2019-05-06T03:55:13.869Z,99.90
2019-05-06T03:56:19.744Z,99.90
2019-05-06T03:57:23.367Z,99.90
2019-05-06T03:58:27.033Z,99.90
2019-05-06T03:59:33.277Z,99.90
2019-05-06T04:00:35.071Z,99.90
2019-05-06T04:01:37.716Z,99.90
2019-05-06T04:02:43.331Z,99.90
2019-05-06T04:03:51.559Z,99.90
2019-05-06T04:04:49.489Z,99.90
2019-05-06T04:05:55.997Z,99.90
2019-05-06T04:06:59.004Z,99.90
2019-05-06T04:08:03.811Z,99.90
2019-05-06T04:09:06.952Z,99.90
2019-05-06T04:10:09.907Z,99.90
2019-05-06T04:11:16.709Z,99.90
2019-05-06T04:12:19.631Z,99.90
2019-05-06T04:13:23.128Z,99.90
2019-05-06T04:14:27.020Z,99.90
2019-05-06T04:15:49.211Z,99.90
2019-05-06T04:16:57.318Z,99.90
2019-05-06T04:18:04.617Z,99.90
2019-05-06T04:19:38.939Z,99.90
2019-05-06T04:20:52.930Z,99.90
2019-05-06T04:22:03.509Z,99.80
2019-05-06T04:23:13.936Z,99.90
2019-05-06T04:24:43.049Z,99.90
2019-05-06T04:26:05.798Z,99.90
2019-05-06T04:27:54.438Z,99.90
2019-05-06T04:28:57.493Z,99.90
2019-05-06T04:30:00.254Z,99.90
2019-05-06T04:31:03.972Z,99.90
2019-05-06T04:32:06.648Z,99.90
2019-05-06T04:33:12.946Z,99.90
2019-05-06T04:34:18.243Z,99.90
2019-05-06T04:35:18.323Z,99.90
2019-05-06T04:36:23.506Z,99.90
2019-05-06T04:37:25.380Z,99.90
2019-05-06T04:38:28.088Z,99.90
2019-05-06T04:39:33.005Z,99.90
2019-05-06T04:40:35.489Z,99.90
2019-05-06T04:41:38.167Z,99.90
2019-05-06T04:42:43.911Z,99.90
2019-05-06T04:43:45.358Z,99.90
2019-05-06T04:44:47.998Z,99.90
2019-05-06T04:45:53.696Z,99.90
2019-05-06T04:46:55.252Z,99.40
2019-05-06T04:47:57.901Z,99.20
2019-05-06T04:49:03.885Z,99.50
2019-05-06T04:50:07.712Z,99.50
2019-05-06T04:51:13.385Z,99.90
2019-05-06T04:52:15.138Z,99.90
2019-05-06T04:53:18.256Z,99.90
2019-05-06T04:54:26.094Z,99.90
2019-05-06T04:55:25.315Z,99.90
2019-05-06T04:56:28.161Z,99.90
2019-05-06T04:57:33.623Z,99.50
2019-05-06T04:58:35.859Z,99.40
2019-05-06T04:59:39.538Z,99.20
2019-05-06T05:00:44.431Z,99.90
2019-05-06T05:01:47.469Z,99.90
2019-05-06T05:02:50.043Z,99.90
2019-05-06T05:03:53.977Z,99.90
2019-05-06T05:04:56.931Z,99.90
2019-05-06T05:06:01.954Z,99.90
2019-05-06T05:07:04.339Z,99.90
2019-05-06T05:08:07.077Z,99.90
2019-05-06T05:09:13.568Z,99.90
2019-05-06T05:10:19.029Z,99.90
2019-05-06T05:11:33.317Z,99.20
2019-05-06T05:12:54.008Z,99.50
2019-05-06T05:14:08.766Z,99.90
2019-05-06T05:15:43.282Z,99.90
2019-05-06T05:17:05.455Z,99.90
2019-05-06T05:18:24.096Z,99.90
2019-05-06T05:19:29.926Z,99.90
2019-05-06T05:20:37.688Z,99.90
2019-05-06T05:21:37.081Z,99.90
2019-05-06T05:22:42.394Z,99.40
2019-05-06T05:23:57.252Z,99.90
2019-05-06T05:24:59.872Z,99.40
2019-05-06T05:26:03.043Z,99.90
2019-05-06T05:27:06.434Z,99.90
2019-05-06T05:28:09.166Z,99.40
2019-05-06T05:29:12.329Z,98.80
2019-05-06T05:30:15.381Z,99.30
2019-05-06T05:31:18.328Z,99.30
2019-05-06T05:32:22.533Z,99.50
2019-05-06T05:33:38.455Z,99.10
2019-05-06T05:34:43.438Z,98.80
2019-05-06T05:35:45.745Z,98.90
2019-05-06T05:37:02.966Z,99.10
2019-05-06T05:38:07.671Z,98.90
2019-05-06T05:39:12.426Z,99.00
2019-05-06T05:40:14.964Z,99.40
2019-05-06T05:41:17.543Z,99.30
2019-05-06T05:42:42.274Z,98.90
2019-05-06T05:43:52.657Z,99.90
2019-05-06T05:44:55.342Z,99.90
2019-05-06T05:45:58.223Z,99.40
2019-05-06T05:47:03.265Z,99.10
2019-05-06T05:48:12.444Z,99.30
2019-05-06T05:49:25.948Z,98.70
2019-05-06T05:50:32.851Z,98.90
2019-05-06T05:51:35.565Z,99.60
2019-05-06T05:52:38.407Z,98.90
2019-05-06T05:53:42.604Z,99.80
2019-05-06T05:54:45.241Z,99.60
2019-05-06T05:55:48.457Z,99.30
2019-05-06T05:56:52.945Z,99.00
2019-05-06T05:57:56.522Z,98.90
2019-05-06T05:58:59.477Z,99.90
2019-05-06T06:00:03.996Z,99.30
2019-05-06T06:01:07.142Z,99.90
2019-05-06T06:02:09.753Z,99.20
2019-05-06T06:03:12.732Z,98.60
2019-05-06T06:04:15.619Z,98.80
2019-05-06T06:05:18.250Z,99.00
2019-05-06T06:06:22.197Z,99.00
2019-05-06T06:07:25.352Z,99.00
2019-05-06T06:08:28.199Z,99.00
2019-05-06T06:09:35.132Z,98.30
2019-05-06T06:10:46.342Z,98.70
2019-05-06T06:11:53.197Z,98.60
2019-05-06T06:12:56.134Z,98.30
2019-05-06T06:14:03.010Z,98.80
2019-05-06T06:15:25.343Z,99.00
2019-05-06T06:16:57.850Z,98.50
2019-05-06T06:18:19.883Z,98.60
2019-05-06T06:19:39.898Z,98.10
2019-05-06T06:20:52.816Z,97.30
2019-05-06T06:21:59.153Z,97.70
2019-05-06T06:23:06.903Z,98.30
2019-05-06T06:24:29.152Z,98.30
2019-05-06T06:25:33.470Z,98.30
2019-05-06T06:26:36.243Z,97.50
2019-05-06T06:27:48.102Z,98.30
2019-05-06T06:28:52.274Z,98.70
2019-05-06T06:29:55.372Z,97.90
2019-05-06T06:31:22.973Z,98.40
2019-05-06T06:32:28.264Z,97.40
2019-05-06T06:33:32.942Z,97.60
2019-05-06T06:35:06.515Z,97.90
2019-05-06T06:36:06.455Z,98.00
2019-05-06T06:37:17.923Z,97.00
2019-05-06T06:38:36.147Z,98.60
2019-05-06T06:39:42.264Z,97.60
2019-05-06T06:40:45.016Z,96.80
2019-05-06T06:41:47.949Z,97.10
2019-05-06T06:42:54.110Z,96.40
2019-05-06T06:44:02.269Z,96.80
2019-05-06T06:45:05.748Z,95.90
2019-05-06T06:46:09.498Z,96.20
2019-05-06T06:47:14.036Z,97.00
2019-05-06T06:48:16.594Z,96.80
2019-05-06T06:49:19.096Z,97.10
2019-05-06T06:50:22.121Z,97.20
2019-05-06T06:51:25.487Z,96.30
2019-05-06T06:52:28.033Z,95.60
2019-05-06T06:53:32.607Z,95.70
2019-05-06T06:54:35.393Z,95.70
2019-05-06T06:55:39.815Z,95.50
2019-05-06T06:57:08.301Z,95.40
2019-05-06T06:58:28.491Z,96.50
2019-05-06T06:59:44.953Z,96.40
2019-05-06T07:01:12.783Z,95.50
2019-05-06T07:02:33.308Z,95.60
2019-05-06T07:03:50.135Z,94.40
2019-05-06T07:05:02.367Z,94.70
2019-05-06T07:06:16.854Z,95.30
2019-05-06T07:07:19.882Z,96.10
2019-05-06T07:08:34.057Z,95.70
2019-05-06T07:09:29.724Z,95.20
2019-05-06T07:10:52.400Z,94.30
2019-05-06T07:11:54.772Z,94.20
2019-05-06T07:12:57.392Z,93.90
2019-05-06T07:14:02.485Z,94.60
2019-05-06T07:15:05.211Z,95.10
2019-05-06T07:16:07.851Z,95.60
2019-05-06T07:17:10.484Z,94.70
2019-05-06T07:18:13.677Z,94.50
2019-05-06T07:19:22.987Z,95.20
2019-05-06T07:20:27.634Z,94.40
2019-05-06T07:21:47.226Z,95.00
2019-05-06T07:22:49.886Z,94.90
2019-05-06T07:23:53.050Z,94.80
2019-05-06T07:24:57.073Z,95.20
2019-05-06T07:25:59.956Z,94.60
2019-05-06T07:27:13.461Z,94.00
2019-05-06T07:28:15.968Z,94.50
2019-05-06T07:29:23.419Z,94.40
2019-05-06T07:30:32.298Z,94.00
2019-05-06T07:31:34.922Z,94.30
2019-05-06T07:32:39.250Z,94.90
2019-05-06T07:33:42.861Z,95.80
2019-05-06T07:34:45.982Z,94.30
2019-05-06T07:35:48.505Z,93.90
2019-05-06T07:36:52.526Z,94.00
2019-05-06T07:37:55.415Z,94.20
2019-05-06T07:38:58.038Z,93.30
2019-05-06T07:40:02.890Z,93.60
2019-05-06T07:41:16.623Z,93.50
2019-05-06T07:42:24.572Z,93.90
2019-05-06T07:43:42.065Z,93.30
2019-05-06T07:45:13.329Z,93.30
2019-05-06T07:46:23.668Z,93.00
2019-05-06T07:47:33.163Z,92.10
2019-05-06T07:48:35.603Z,93.40
2019-05-06T07:49:38.180Z,92.10
2019-05-06T07:50:42.486Z,91.70
2019-05-06T07:51:45.325Z,92.20
2019-05-06T07:53:06.519Z,91.60
2019-05-06T07:54:09.186Z,91.20
2019-05-06T07:55:12.059Z,91.60
2019-05-06T07:56:14.877Z,92.10
2019-05-06T07:57:17.432Z,92.40
2019-05-06T07:58:20.207Z,92.40
2019-05-06T07:59:22.831Z,90.20
2019-05-06T08:00:25.600Z,90.70
2019-05-06T08:01:28.242Z,92.50
2019-05-06T08:02:32.107Z,91.60
2019-05-06T08:03:34.816Z,91.50
2019-05-06T08:04:37.344Z,91.00
2019-05-06T08:05:52.795Z,92.00
2019-05-06T08:06:44.362Z,91.20
2019-05-06T08:07:47.291Z,91.70
2019-05-06T08:08:53.438Z,91.60
2019-05-06T08:09:54.882Z,90.50
2019-05-06T08:10:57.535Z,92.30
2019-05-06T08:12:00.168Z,92.30
2019-05-06T08:13:03.717Z,90.40
2019-05-06T08:14:07.001Z,89.50
2019-05-06T08:15:12.535Z,89.90
2019-05-06T08:16:14.686Z,89.70
2019-05-06T08:17:32.925Z,90.40
2019-05-06T08:18:34.970Z,91.50
2019-05-06T08:19:37.716Z,91.80
2019-05-06T08:20:42.636Z,89.60
2019-05-06T08:21:46.641Z,88.40
2019-05-06T08:22:57.787Z,88.20
2019-05-06T08:24:02.609Z,88.90
2019-05-06T08:25:05.192Z,89.20
2019-05-06T08:26:12.786Z,90.50
2019-05-06T08:27:12.448Z,89.00
2019-05-06T08:28:15.277Z,90.90
2019-05-06T08:29:17.925Z,90.70
2019-05-06T08:30:22.515Z,91.00
2019-05-06T08:31:25.048Z,91.70
2019-05-06T08:32:27.562Z,91.70
2019-05-06T08:33:32.730Z,91.80
2019-05-06T08:34:35.637Z,90.80
2019-05-06T08:35:38.394Z,91.90
2019-05-06T08:37:13.035Z,91.40
2019-05-06T08:38:15.637Z,90.60
2019-05-06T08:39:18.394Z,90.10
2019-05-06T08:40:22.690Z,90.50
2019-05-06T08:41:26.447Z,90.30
2019-05-06T08:42:29.197Z,91.60
2019-05-06T08:43:32.653Z,90.80
2019-05-06T08:44:35.501Z,92.40
2019-05-06T08:45:37.995Z,92.00
2019-05-06T08:46:42.986Z,91.30
2019-05-06T08:47:45.604Z,91.00
2019-05-06T08:48:48.211Z,91.60
2019-05-06T08:50:19.339Z,91.70
2019-05-06T08:51:33.262Z,91.90
2019-05-06T08:52:54.037Z,91.20
2019-05-06T08:54:04.463Z,90.40
2019-05-06T08:55:06.403Z,91.60
2019-05-06T08:56:12.705Z,91.20
2019-05-06T08:57:15.750Z,91.20
2019-05-06T08:58:18.430Z,90.70
2019-05-06T08:59:21.036Z,91.10
2019-05-06T09:00:23.724Z,90.30
2019-05-06T09:01:42.434Z,91.60
2019-05-06T09:02:46.309Z,90.40
2019-05-06T09:04:05.560Z,91.90
2019-05-06T09:04:54.098Z,91.40
2019-05-06T09:05:56.672Z,92.60
2019-05-06T09:06:59.434Z,90.40
2019-05-06T09:08:03.592Z,91.00
2019-05-06T09:09:08.580Z,91.50
2019-05-06T09:10:13.166Z,91.70
2019-05-06T09:11:16.129Z,92.40
2019-05-06T09:12:18.967Z,91.40
2019-05-06T09:13:23.194Z,92.30
2019-05-06T09:14:26.227Z,91.10
2019-05-06T09:15:28.959Z,91.60
2019-05-06T09:16:33.044Z,90.90
2019-05-06T09:17:35.965Z,91.40
2019-05-06T09:18:38.796Z,90.80
2019-05-06T09:19:42.689Z,88.30
2019-05-06T09:20:45.664Z,89.70
2019-05-06T09:21:49.266Z,87.80
2019-05-06T09:22:52.232Z,89.60
2019-05-06T09:23:54.998Z,88.90
2019-05-06T09:24:57.518Z,90.50
2019-05-06T09:26:02.517Z,91.50
2019-05-06T09:27:27.267Z,90.00
2019-05-06T09:28:54.174Z,88.00
2019-05-06T09:30:06.991Z,90.70
2019-05-06T09:31:13.955Z,90.60
2019-05-06T09:32:36.294Z,89.20
2019-05-06T09:33:47.691Z,89.70
2019-05-06T09:34:52.977Z,90.10
2019-05-06T09:35:55.754Z,92.50
2019-05-06T09:37:14.379Z,90.60
2019-05-06T09:38:17.182Z,90.70
2019-05-06T09:39:19.929Z,92.10
2019-05-06T09:40:22.822Z,91.00
2019-05-06T09:41:32.465Z,91.10
2019-05-06T09:42:35.127Z,90.60
2019-05-06T09:43:38.142Z,89.50
2019-05-06T09:44:42.726Z,90.00
2019-05-06T09:45:45.718Z,90.10
2019-05-06T09:46:48.299Z,88.50
2019-05-06T09:48:17.687Z,87.70
2019-05-06T09:49:23.923Z,85.30
2019-05-06T09:50:46.025Z,85.30
2019-05-06T09:51:48.665Z,86.90
2019-05-06T09:52:52.861Z,83.80
2019-05-06T09:54:07.112Z,82.40
2019-05-06T09:55:27.313Z,82.50
2019-05-06T09:56:36.642Z,84.00
2019-05-06T09:57:58.804Z,83.70
2019-05-06T09:59:02.242Z,85.20
2019-05-06T10:00:05.964Z,88.90
2019-05-06T10:01:08.634Z,87.70
2019-05-06T10:02:12.369Z,84.20
2019-05-06T10:03:16.688Z,83.00
2019-05-06T10:04:19.519Z,81.20
2019-05-06T10:05:22.028Z,81.40
2019-05-06T10:06:24.641Z,83.50
2019-05-06T10:07:27.197Z,84.50
2019-05-06T10:08:32.051Z,82.30
2019-05-06T10:09:34.442Z,82.80
2019-05-06T10:10:37.085Z,82.50
2019-05-06T10:11:42.310Z,81.10
2019-05-06T10:12:45.171Z,83.00
2019-05-06T10:13:47.692Z,81.40
2019-05-06T10:14:52.532Z,83.80
2019-05-06T10:15:57.599Z,82.10
2019-05-06T10:16:59.613Z,82.20
2019-05-06T10:18:09.121Z,84.00
2019-05-06T10:19:13.245Z,83.30
2019-05-06T10:20:16.270Z,87.10
2019-05-06T10:21:19.031Z,87.90
2019-05-06T10:22:23.293Z,86.10
2019-05-06T10:23:26.060Z,81.30
2019-05-06T10:24:28.567Z,82.60
2019-05-06T10:25:31.219Z,82.70
2019-05-06T10:26:43.019Z,83.20
2019-05-06T10:27:47.774Z,82.70
2019-05-06T10:29:08.740Z,82.50
2019-05-06T10:30:12.511Z,81.40
2019-05-06T10:31:16.757Z,84.80
2019-05-06T10:32:37.316Z,86.50
2019-05-06T10:33:57.706Z,84.20
2019-05-06T10:35:02.659Z,81.60
2019-05-06T10:36:05.091Z,86.10
2019-05-06T10:37:20.373Z,85.20
2019-05-06T10:38:59.445Z,82.40
2019-05-06T10:40:13.367Z,85.70
2019-05-06T10:41:22.186Z,82.20
2019-05-06T10:42:33.169Z,83.10
2019-05-06T10:43:52.556Z,84.00
2019-05-06T10:45:05.490Z,83.20
2019-05-06T10:46:07.988Z,83.70
2019-05-06T10:47:12.134Z,82.90
2019-05-06T10:48:14.806Z,83.30
2019-05-06T10:49:17.354Z,82.10
2019-05-06T10:50:19.886Z,81.90
2019-05-06T10:51:36.179Z,83.10
2019-05-06T10:52:57.029Z,82.80
2019-05-06T10:54:02.969Z,83.20
2019-05-06T10:55:06.391Z,80.70
2019-05-06T10:56:26.986Z,81.20
2019-05-06T10:57:40.509Z,82.10
2019-05-06T10:58:44.086Z,82.50
2019-05-06T10:59:46.885Z,82.60
2019-05-06T11:00:53.013Z,84.00
2019-05-06T11:01:57.784Z,82.50
2019-05-06T11:03:22.645Z,81.60
2019-05-06T11:04:25.946Z,82.30
2019-05-06T11:05:28.540Z,81.40
2019-05-06T11:06:33.487Z,80.70
2019-05-06T11:07:35.626Z,82.90
2019-05-06T11:08:38.584Z,81.60
2019-05-06T11:09:42.630Z,79.70
2019-05-06T11:10:45.898Z,78.10
2019-05-06T11:11:48.599Z,78.60
2019-05-06T11:12:52.341Z,78.90
2019-05-06T11:13:55.353Z,77.00
2019-05-06T11:14:58.024Z,79.80
2019-05-06T11:16:03.198Z,80.50
2019-05-06T11:17:05.357Z,76.10
2019-05-06T11:18:08.603Z,77.60
2019-05-06T11:19:13.317Z,78.30
2019-05-06T11:20:15.873Z,80.30
2019-05-06T11:21:19.458Z,78.50
2019-05-06T11:22:24.596Z,80.00
2019-05-06T11:23:26.661Z,77.70
2019-05-06T11:24:29.368Z,76.60
2019-05-06T11:25:32.422Z,80.40
2019-05-06T11:26:34.998Z,78.70
2019-05-06T11:27:41.894Z,78.90
2019-05-06T11:29:06.181Z,81.60
2019-05-06T11:30:15.241Z,79.90
2019-05-06T11:31:36.587Z,80.90
2019-05-06T11:32:57.659Z,82.30
2019-05-06T11:34:07.118Z,84.30
2019-05-06T11:35:17.362Z,82.70
2019-05-06T11:36:27.379Z,82.70
2019-05-06T11:37:49.743Z,84.00
2019-05-06T11:39:06.354Z,82.70
2019-05-06T11:40:09.461Z,82.70
2019-05-06T11:41:13.397Z,82.10
2019-05-06T11:42:28.130Z,80.90
2019-05-06T11:43:22.678Z,82.30
2019-05-06T11:44:25.229Z,78.70
2019-05-06T11:45:28.862Z,78.40
2019-05-06T11:46:32.838Z,76.60
2019-05-06T11:47:35.698Z,78.80
2019-05-06T11:48:38.403Z,78.00
2019-05-06T11:49:41.032Z,78.10
2019-05-06T11:50:45.278Z,77.80
2019-05-06T11:51:48.299Z,79.00
2019-05-06T11:52:55.549Z,80.50
2019-05-06T11:53:57.037Z,80.10
2019-05-06T11:55:02.041Z,80.50
2019-05-06T11:56:04.068Z,81.00
2019-05-06T11:57:08.415Z,83.00
2019-05-06T11:58:33.199Z,81.00
2019-05-06T11:59:36.176Z,80.10
2019-05-06T12:00:43.871Z,81.10
2019-05-06T12:01:49.746Z,76.90
2019-05-06T12:02:53.304Z,79.20
2019-05-06T12:03:56.332Z,83.20
2019-05-06T12:04:58.875Z,83.50
2019-05-06T12:06:03.837Z,85.80
2019-05-06T12:07:11.366Z,83.00
2019-05-06T12:08:15.214Z,81.60
2019-05-06T12:09:17.232Z,79.70
2019-05-06T12:10:19.968Z,79.70
2019-05-06T12:11:23.633Z,82.00
2019-05-06T12:12:27.930Z,83.50
2019-05-06T12:13:30.587Z,82.90
2019-05-06T12:14:33.212Z,83.10
2019-05-06T12:15:35.847Z,81.00
2019-05-06T12:16:38.650Z,82.50
2019-05-06T12:17:42.195Z,83.90
2019-05-06T12:18:44.981Z,80.20
2019-05-06T12:19:49.789Z,80.80
2019-05-06T12:20:52.824Z,80.60
2019-05-06T12:21:55.669Z,81.20
2019-05-06T12:22:58.536Z,83.20
2019-05-06T12:24:02.851Z,81.80
2019-05-06T12:25:23.476Z,84.40
2019-05-06T12:26:24.939Z,84.80
2019-05-06T12:27:46.452Z,87.30
2019-05-06T12:28:49.075Z,89.50
2019-05-06T12:29:52.836Z,89.60
2019-05-06T12:30:55.721Z,90.80
2019-05-06T12:32:12.403Z,91.00
2019-05-06T12:33:34.529Z,90.80
2019-05-06T12:34:37.383Z,86.40
2019-05-06T12:35:42.859Z,89.70
2019-05-06T12:36:47.380Z,88.90
2019-05-06T12:37:53.117Z,89.20
2019-05-06T12:39:32.952Z,87.70
2019-05-06T12:40:35.089Z,89.60
2019-05-06T12:42:05.992Z,85.90
2019-05-06T12:43:30.490Z,85.50
2019-05-06T12:44:34.730Z,84.10
2019-05-06T12:45:42.933Z,85.80
2019-05-06T12:46:54.569Z,87.10
2019-05-06T12:48:16.652Z,84.20
2019-05-06T12:49:19.214Z,86.00
2019-05-06T12:50:22.744Z,80.90
2019-05-06T12:51:25.825Z,82.00
2019-05-06T12:52:28.348Z,86.30
2019-05-06T12:53:32.792Z,80.90
2019-05-06T12:54:35.917Z,81.20
2019-05-06T12:55:38.534Z,82.40
2019-05-06T12:56:42.483Z,83.20
2019-05-06T12:57:45.278Z,82.20
2019-05-06T12:58:47.891Z,81.60
2019-05-06T12:59:52.841Z,80.60
2019-05-06T13:00:55.155Z,82.20
2019-05-06T13:02:02.757Z,81.90
2019-05-06T13:03:05.146Z,85.00
2019-05-06T13:04:07.942Z,77.80
2019-05-06T13:05:12.639Z,79.30
2019-05-06T13:06:15.575Z,79.40
2019-05-06T13:07:25.175Z,80.70
2019-05-06T13:08:47.914Z,84.60
2019-05-06T13:09:33.161Z,78.40
2019-05-06T13:10:36.061Z,78.50
2019-05-06T13:11:38.572Z,77.10
2019-05-06T13:12:42.435Z,78.40
2019-05-06T13:13:56.613Z,78.10
2019-05-06T13:14:52.710Z,77.00
2019-05-06T13:15:58.121Z,78.10
2019-05-06T13:17:02.629Z,81.10
2019-05-06T13:18:06.986Z,78.50
2019-05-06T13:19:12.057Z,77.50
2019-05-06T13:20:15.009Z,76.70
2019-05-06T13:21:17.821Z,79.70
2019-05-06T13:22:28.813Z,77.00
2019-05-06T13:23:43.836Z,73.70
2019-05-06T13:24:46.379Z,78.20
2019-05-06T13:25:49.157Z,79.00
2019-05-06T13:26:52.982Z,78.80
2019-05-06T13:27:55.990Z,80.90
2019-05-06T13:29:04.254Z,77.70
2019-05-06T13:30:07.846Z,78.10
2019-05-06T13:31:17.292Z,78.00
2019-05-06T13:32:17.747Z,80.40
2019-05-06T13:33:29.722Z,78.20
2019-05-06T13:34:33.332Z,75.40
2019-05-06T13:35:36.271Z,79.00
2019-05-06T13:36:38.971Z,77.00
2019-05-06T13:37:42.289Z,78.80
2019-05-06T13:38:45.158Z,82.50
2019-05-06T13:39:49.126Z,78.70
2019-05-06T13:40:57.063Z,78.90
2019-05-06T13:41:56.926Z,74.90
2019-05-06T13:43:17.838Z,73.10
2019-05-06T13:44:22.767Z,75.30
2019-05-06T13:45:25.893Z,72.10
2019-05-06T13:46:33.541Z,73.50
2019-05-06T13:48:03.830Z,75.30
2019-05-06T13:49:26.409Z,74.70
2019-05-06T13:50:31.472Z,77.20
2019-05-06T13:51:34.347Z,73.70
2019-05-06T13:52:37.924Z,74.80
2019-05-06T13:53:44.018Z,80.00
2019-05-06T13:54:45.176Z,77.20
2019-05-06T13:55:48.255Z,78.40
2019-05-06T13:56:52.093Z,76.00
2019-05-06T13:57:56.183Z,78.20
2019-05-06T13:59:00.232Z,78.70
2019-05-06T14:00:04.023Z,78.70
2019-05-06T14:01:10.513Z,79.30
2019-05-06T14:02:53.160Z,79.70
2019-05-06T14:03:55.934Z,79.00
2019-05-06T14:04:58.819Z,76.80
2019-05-06T14:06:02.984Z,76.40
2019-05-06T14:07:07.384Z,76.10
2019-05-06T14:08:13.020Z,75.30
2019-05-06T14:09:28.739Z,79.10
2019-05-06T14:10:22.214Z,77.50
2019-05-06T14:11:25.650Z,77.60
2019-05-06T14:12:28.464Z,77.70
2019-05-06T14:13:52.915Z,77.20
2019-05-06T14:14:55.820Z,77.40
2019-05-06T14:15:58.718Z,75.70
2019-05-06T14:17:01.445Z,78.40